Time;durP1;ratioP1;P1;durP2;ratioP2;P2;SDS_P1;SDS_P2;PMS_P1;PMS_P2;Temp;Humidity;BMP_temperature;BMP_pressure;BME280_temperature;BME280_humidity;BME280_pressure;Samples;Min_cycle;Max_cycle;Signal;HPM_P1;HPM_P2
2023/01/05 00:00:09;;;;;;;8.23;2.80;;;11.20;99.90;;;;;;5051712;28;20828;-55
2023/01/05 00:02:41;;;;;;;9.33;3.40;;;11.10;99.90;;;;;;5052485;28;20946;-54
2023/01/05 00:05:09;;;;;;;6.60;2.27;;;10.40;99.90;;;;;;5052413;28;20444;-56
2023/01/05 00:07:36;;;;;;;9.33;3.27;;;11.20;99.90;;;;;;5052339;28;20498;-54
2023/01/05 00:10:03;;;;;;;7.47;2.80;;;11.10;99.90;;;;;;5051603;28;20439;-55
2023/01/05 00:23:28;;;;;;;9.07;2.40;;;11.00;99.90;;;;;;5052112;28;20444;-54
2023/01/05 00:25:55;;;;;;;9.33;2.40;;;10.80;99.90;;;;;;5052090;28;20789;-54
2023/01/05 00:28:22;;;;;;;6.47;2.13;;;11.10;99.90;;;;;;5051899;28;20645;-55
2023/01/05 00:30:48;;;;;;;7.10;2.77;;;11.40;99.90;;;;;;5033808;28;20451;-54
2023/01/05 00:33:17;;;;;;;7.80;2.77;;;11.10;99.90;;;;;;5033543;28;20933;-55
2023/01/05 00:35:45;;;;;;;13.27;2.73;;;11.00;99.90;;;;;;5052099;28;20403;-54
2023/01/05 00:38:12;;;;;;;9.87;3.37;;;11.00;99.90;;;;;;5051996;28;20445;-54
2023/01/05 00:40:38;;;;;;;10.83;2.20;;;11.50;99.90;;;;;;5033368;28;20802;-56
2023/01/05 00:43:05;;;;;;;7.50;2.10;;;11.00;99.90;;;;;;5051884;28;20416;-55
2023/01/05 00:45:32;;;;;;;10.53;2.63;;;10.90;99.90;;;;;;5052250;28;20409;-53
2023/01/05 00:47:59;;;;;;;8.70;2.60;;;11.00;99.90;;;;;;5052039;28;20416;-55
2023/01/05 00:50:26;;;;;;;9.40;2.43;;;10.40;99.90;;;;;;5051098;28;20407;-55
2023/01/05 00:52:54;;;;;;;6.90;1.90;;;11.10;99.90;;;;;;5033898;28;20572;-54
2023/01/05 00:55:21;;;;;;;11.27;2.33;;;10.50;99.90;;;;;;5051950;28;20424;-55
2023/01/05 00:57:48;;;;;;;8.00;2.63;;;10.90;99.90;;;;;;5051798;28;20445;-54
2023/01/05 01:00:17;;;;;;;6.73;1.97;;;11.10;99.90;;;;;;5033090;28;20952;-54
2023/01/05 01:02:44;;;;;;;8.83;2.20;;;11.10;99.90;;;;;;5033988;28;20476;-55
2023/01/05 01:05:11;;;;;;;6.83;2.30;;;11.20;99.90;;;;;;5051661;28;20445;-56
2023/01/05 01:07:38;;;;;;;9.60;2.40;;;11.30;99.90;;;;;;5051617;28;20924;-56
2023/01/05 01:10:08;;;;;;;7.13;2.87;;;11.00;99.90;;;;;;5032976;28;20437;-54
2023/01/05 01:12:34;;;;;;;11.07;3.17;;;11.40;99.90;;;;;;5033763;28;20493;-54
2023/01/05 01:15:01;;;;;;;5.63;2.33;;;11.00;99.90;;;;;;5051461;28;20484;-57
2023/01/05 01:17:28;;;;;;;6.90;2.00;;;11.00;99.90;;;;;;5051532;28;20409;-54
2023/01/05 01:19:54;;;;;;;7.37;3.13;;;11.10;99.90;;;;;;5032968;28;20459;-55
2023/01/05 01:22:21;;;;;;;12.10;2.23;;;11.20;99.90;;;;;;5033509;28;20479;-56
2023/01/05 01:24:48;;;;;;;7.03;2.10;;;11.10;99.90;;;;;;5051424;28;20409;-55
2023/01/05 01:27:15;;;;;;;12.60;2.37;;;11.20;99.90;;;;;;5033523;28;20428;-53
2023/01/05 01:29:42;;;;;;;9.70;3.13;;;11.60;99.90;;;;;;5032930;28;20430;-54
2023/01/05 01:32:09;;;;;;;7.10;2.83;;;11.10;99.90;;;;;;5051412;28;20517;-53
2023/01/05 01:34:36;;;;;;;8.20;2.17;;;11.20;99.90;;;;;;5051574;28;20447;-54
2023/01/05 01:37:02;;;;;;;8.60;2.77;;;10.90;99.90;;;;;;5051404;28;20439;-53
2023/01/05 01:39:34;;;;;;;6.40;2.37;;;11.30;99.90;;;;;;5033064;28;20445;-53
2023/01/05 01:42:10;;;;;;;9.60;2.90;;;10.90;99.90;;;;;;5033461;28;20475;-54
2023/01/05 01:44:54;;;;;;;8.57;2.80;;;10.90;99.90;;;;;;5051763;28;20431;-53
2023/01/05 01:47:33;;;;;;;7.93;2.50;;;10.90;99.90;;;;;;5037625;28;20423;-53
2023/01/05 01:50:03;;;;;;;9.53;2.83;;;10.80;99.90;;;;;;5036553;28;20421;-53
2023/01/05 01:52:31;;;;;;;10.17;2.60;;;11.20;99.90;;;;;;5055114;28;20836;-53
2023/01/05 01:54:58;;;;;;;8.53;3.33;;;10.70;99.90;;;;;;5036892;28;21001;-54
2023/01/05 01:57:27;;;;;;;9.00;2.20;;;10.40;99.90;;;;;;5036948;28;20472;-53
2023/01/05 01:59:56;;;;;;;7.70;2.67;;;10.80;99.90;;;;;;5036549;28;20457;-55
2023/01/05 02:02:24;;;;;;;9.73;2.70;;;10.80;99.90;;;;;;5036536;28;20477;-53
2023/01/05 02:04:51;;;;;;;7.60;2.30;;;10.70;99.90;;;;;;5037041;28;20451;-54
2023/01/05 02:07:18;;;;;;;10.90;2.83;;;11.00;99.90;;;;;;5036972;28;20447;-54
2023/01/05 02:09:46;;;;;;;10.57;2.50;;;11.10;99.90;;;;;;5053989;28;20429;-54
2023/01/05 02:12:27;;;;;;;9.97;1.97;;;11.10;99.90;;;;;;5054487;28;20430;-56
2023/01/05 02:15:06;;;;;;;8.80;2.30;;;10.80;99.90;;;;;;5054634;28;20457;-55
2023/01/05 02:17:42;;;;;;;5.97;2.33;;;11.20;99.90;;;;;;5055106;28;20665;-57
2023/01/05 02:20:53;;;;;;;9.67;3.60;;;11.00;99.90;;;;;;5036005;28;20430;-55
2023/01/05 02:23:45;;;;;;;9.17;2.83;;;11.00;99.90;;;;;;5054408;28;20941;-54
2023/01/05 02:26:45;;;;;;;4.93;2.27;;;10.90;99.90;;;;;;5054422;28;20410;-54
2023/01/05 02:29:41;;;;;;;4.63;1.83;;;11.30;99.90;;;;;;5035729;28;20443;-53
2023/01/05 02:32:16;;;;;;;9.17;3.00;;;11.20;99.90;;;;;;5036125;28;20445;-54
2023/01/05 02:34:49;;;;;;;9.30;2.40;;;11.00;99.90;;;;;;5036210;28;20479;-53
2023/01/05 02:37:20;;;;;;;3.60;2.13;;;10.90;99.90;;;;;;5054101;28;20412;-55
2023/01/05 02:39:53;;;;;;;9.73;3.10;;;11.10;99.90;;;;;;5035453;28;20430;-55
2023/01/05 02:42:23;;;;;;;6.43;2.33;;;11.10;99.90;;;;;;5036060;28;20495;-53
2023/01/05 02:44:50;;;;;;;12.53;3.10;;;10.40;99.90;;;;;;5054035;28;20934;-55
2023/01/05 02:47:37;;;;;;;10.83;2.57;;;11.20;99.90;;;;;;5036085;28;20437;-54
2023/01/05 02:50:11;;;;;;;7.70;2.30;;;11.20;99.90;;;;;;5035401;28;20459;-55
2023/01/05 02:52:42;;;;;;;11.03;2.70;;;11.50;99.90;;;;;;5036046;28;20445;-56
2023/01/05 02:55:12;;;;;;;6.60;2.20;;;11.10;99.90;;;;;;5053785;28;20963;-54
2023/01/05 02:57:49;;;;;;;10.27;3.60;;;11.60;99.90;;;;;;5053130;28;20497;-54
2023/01/05 03:00:23;;;;;;;16.97;3.13;;;11.00;99.90;;;;;;5053126;28;20415;-53
2023/01/05 03:02:54;;;;;;;7.57;3.30;;;11.00;99.90;;;;;;5035956;28;20520;-54
2023/01/05 03:05:25;;;;;;;6.40;2.10;;;11.00;99.90;;;;;;5053438;28;20475;-55
2023/01/05 03:08:05;;;;;;;7.00;2.43;;;11.40;99.90;;;;;;5035845;28;20553;-54
2023/01/05 03:13:42;;;;;;;12.83;3.17;;;11.10;99.90;;;;;;4996632;28;20555;-55
2023/01/05 03:16:19;;;;;;;9.07;3.10;;;11.30;99.90;;;;;;5035641;28;20854;-54
2023/01/05 03:35:33;;;;;;;8.20;2.20;;;11.40;99.90;;;;;;5035075;28;20819;-56
2023/01/05 03:38:07;;;;;;;8.13;2.10;;;11.40;99.90;;;;;;5035235;28;20465;-54
2023/01/05 03:40:36;;;;;;;7.60;2.50;;;10.70;99.90;;;;;;5052188;28;20438;-55
2023/01/05 03:43:04;;;;;;;7.80;2.03;;;11.60;99.90;;;;;;5052810;28;20921;-55
2023/01/05 03:45:38;;;;;;;5.63;1.90;;;11.00;99.90;;;;;;5035015;28;20448;-56
2023/01/05 03:48:05;;;;;;;9.87;2.13;;;11.40;99.90;;;;;;5052835;28;20789;-56
2023/01/05 03:50:34;;;;;;;10.70;2.40;;;11.10;99.90;;;;;;5034060;28;20828;-57
2023/01/05 03:53:00;;;;;;;8.50;2.10;;;11.40;99.90;;;;;;5052712;28;20502;-56
2023/01/05 03:55:30;;;;;;;5.90;2.23;;;11.50;99.90;;;;;;5034584;28;20484;-56
2023/01/05 03:57:56;;;;;;;11.53;2.90;;;11.10;99.90;;;;;;5034879;28;20455;-55
2023/01/05 04:00:24;;;;;;;10.93;2.80;;;11.50;99.90;;;;;;5051673;28;20434;-55
2023/01/05 04:02:58;;;;;;;13.07;3.03;;;11.10;99.90;;;;;;5034505;28;20801;-56
2023/01/05 04:05:25;;;;;;;7.10;3.33;;;11.20;99.90;;;;;;5052394;28;20463;-55
2023/01/05 04:07:53;;;;;;;9.67;3.30;;;11.20;99.90;;;;;;5034395;28;20450;-56
2023/01/05 04:10:21;;;;;;;10.70;2.80;;;11.50;99.90;;;;;;5033731;28;20460;-56
2023/01/05 04:12:48;;;;;;;5.87;2.50;;;11.60;99.90;;;;;;5034253;28;20646;-56
2023/01/05 04:15:16;;;;;;;8.13;2.30;;;11.30;99.90;;;;;;5034388;28;20491;-56
2023/01/05 04:17:43;;;;;;;7.57;3.03;;;11.10;99.90;;;;;;5034375;28;20526;-56
2023/01/05 04:20:12;;;;;;;6.43;2.80;;;11.40;99.90;;;;;;5033556;28;20501;-55
2023/01/05 04:22:39;;;;;;;9.90;3.10;;;11.10;99.90;;;;;;5034234;28;20487;-57
2023/01/05 04:25:09;;;;;;;5.10;1.70;;;10.70;99.90;;;;;;5034382;28;20532;-56
2023/01/05 04:27:36;;;;;;;6.90;1.63;;;11.00;99.90;;;;;;5034193;28;20983;-56
2023/01/05 04:30:06;;;;;;;3.63;1.63;;;11.50;99.90;;;;;;5033493;28;20490;-56
2023/01/05 04:32:33;;;;;;;4.80;1.70;;;11.00;99.90;;;;;;5034114;28;20477;-56
2023/01/05 04:35:00;;;;;;;6.60;2.13;;;10.80;99.90;;;;;;5033993;28;20447;-55
2023/01/05 04:37:27;;;;;;;4.63;1.70;;;11.20;99.90;;;;;;5052056;28;20443;-56
2023/01/05 04:39:54;;;;;;;7.30;1.93;;;10.50;99.90;;;;;;5033311;28;20425;-55
2023/01/05 04:42:22;;;;;;;6.83;2.10;;;11.10;99.90;;;;;;5033892;28;20990;-56
2023/01/05 04:44:53;;;;;;;6.03;1.73;;;11.00;99.90;;;;;;5034010;28;20864;-56
2023/01/05 04:47:21;;;;;;;3.60;2.00;;;10.70;99.90;;;;;;5033744;28;20560;-56
2023/01/05 04:49:49;;;;;;;4.10;1.67;;;11.20;99.90;;;;;;5033172;28;20510;-56
2023/01/05 04:52:16;;;;;;;5.40;1.97;;;11.00;99.90;;;;;;5033735;28;20438;-55
2023/01/05 04:54:44;;;;;;;7.03;2.10;;;10.60;99.90;;;;;;5033684;28;20473;-54
2023/01/05 04:57:11;;;;;;;9.93;3.43;;;10.80;99.90;;;;;;5033973;28;20447;-55
2023/01/05 04:59:40;;;;;;;7.50;2.10;;;11.20;99.90;;;;;;5033163;28;20971;-56
2023/01/05 05:02:08;;;;;;;7.47;2.17;;;10.90;99.90;;;;;;5051664;28;20430;-55
2023/01/05 05:04:35;;;;;;;6.17;2.00;;;10.80;99.90;;;;;;5051773;28;20432;-56
2023/01/05 05:07:03;;;;;;;7.03;2.50;;;10.80;99.90;;;;;;5034288;28;20778;-56
2023/01/05 05:09:32;;;;;;;8.10;1.90;;;10.90;99.90;;;;;;5033161;28;20473;-56
2023/01/05 05:11:59;;;;;;;8.30;2.77;;;11.10;99.90;;;;;;5050376;28;20450;-56
2023/01/05 05:14:27;;;;;;;5.53;1.50;;;10.70;99.90;;;;;;5033663;28;21006;-55
2023/01/05 05:16:59;;;;;;;7.97;1.90;;;10.80;99.90;;;;;;5033675;28;20458;-55
2023/01/05 05:19:26;;;;;;;5.63;1.80;;;10.80;99.90;;;;;;5033289;28;20830;-56
2023/01/05 05:21:53;;;;;;;7.23;2.63;;;10.40;99.90;;;;;;5037413;28;20479;-55
2023/01/05 05:24:20;;;;;;;9.60;2.57;;;10.60;99.90;;;;;;5055425;28;20410;-56
2023/01/05 05:26:49;;;;;;;6.63;2.63;;;11.20;99.90;;;;;;5037583;28;20459;-56
2023/01/05 05:29:15;;;;;;;6.43;1.70;;;10.90;99.90;;;;;;5054651;28;20797;-56
2023/01/05 05:31:42;;;;;;;5.27;1.93;;;10.70;99.90;;;;;;5055302;28;20450;-56
2023/01/05 05:34:10;;;;;;;8.70;2.70;;;10.80;99.90;;;;;;5055118;28;20486;-56
2023/01/05 05:36:37;;;;;;;5.03;1.90;;;10.30;99.90;;;;;;5055145;28;20409;-56
2023/01/05 05:39:04;;;;;;;8.33;2.37;;;10.70;99.90;;;;;;5054217;28;20481;-55
2023/01/05 05:41:30;;;;;;;4.50;2.20;;;11.00;99.90;;;;;;5054900;28;20455;-55
2023/01/05 05:43:59;;;;;;;8.90;2.90;;;10.60;99.90;;;;;;5037036;28;20423;-55
2023/01/05 05:46:26;;;;;;;5.90;2.47;;;10.90;99.90;;;;;;5055104;28;20440;-55
2023/01/05 05:48:53;;;;;;;8.57;2.70;;;10.80;99.90;;;;;;5054256;28;20806;-56
2023/01/05 05:51:21;;;;;;;9.50;3.00;;;10.80;99.90;;;;;;5054745;28;20448;-54
2023/01/05 05:53:47;;;;;;;8.33;2.70;;;11.30;99.90;;;;;;5054764;28;20947;-55
2023/01/05 05:56:14;;;;;;;11.50;3.73;;;11.00;99.90;;;;;;5054467;28;20575;-56
2023/01/05 05:58:41;;;;;;;9.20;2.83;;;10.90;99.90;;;;;;5053814;28;20440;-55
2023/01/05 06:01:08;;;;;;;8.27;2.87;;;10.60;99.90;;;;;;5054690;28;20464;-56
2023/01/05 06:03:34;;;;;;;5.97;2.67;;;10.90;99.90;;;;;;5054593;28;20444;-56
2023/01/05 06:06:01;;;;;;;4.90;1.80;;;10.60;99.90;;;;;;5054377;28;20436;-56
2023/01/05 06:08:29;;;;;;;5.97;2.03;;;11.00;99.90;;;;;;5053916;28;20503;-55
2023/01/05 06:10:57;;;;;;;4.37;1.83;;;10.90;99.90;;;;;;5054287;28;20846;-54
2023/01/05 06:13:24;;;;;;;7.47;1.50;;;10.60;99.90;;;;;;5054323;28;21246;-56
2023/01/05 06:15:51;;;;;;;4.90;1.23;;;10.40;99.90;;;;;;5054154;28;20553;-55
2023/01/05 06:18:18;;;;;;;4.30;1.43;;;10.80;99.90;;;;;;5054278;28;20410;-55
2023/01/05 06:20:44;;;;;;;4.40;1.73;;;10.70;99.90;;;;;;5053584;28;20869;-55
2023/01/05 06:23:11;;;;;;;4.63;1.20;;;11.20;99.90;;;;;;5053849;28;20944;-55
2023/01/05 06:25:39;;;;;;;2.80;1.20;;;10.60;99.90;;;;;;5054061;28;20410;-56
2023/01/05 06:28:05;;;;;;;2.63;1.30;;;10.50;99.90;;;;;;5053830;28;20433;-56
2023/01/05 06:30:32;;;;;;;2.87;1.23;;;10.60;99.90;;;;;;5052681;28;20432;-56
2023/01/05 06:32:58;;;;;;;5.00;1.30;;;10.50;99.90;;;;;;5052590;28;20535;-55
2023/01/05 06:35:25;;;;;;;3.50;1.50;;;10.60;99.90;;;;;;5053611;28;20458;-55
2023/01/05 06:37:52;;;;;;;2.23;1.10;;;11.30;99.90;;;;;;5053186;28;20800;-57
2023/01/05 06:40:18;;;;;;;2.50;1.73;;;10.40;99.90;;;;;;5053015;28;20440;-57
2023/01/05 06:42:47;;;;;;;3.83;1.60;;;9.90;99.90;;;;;;5053698;28;20588;-54
2023/01/05 06:45:15;;;;;;;4.50;1.13;;;10.40;99.90;;;;;;5053507;28;20402;-56
2023/01/05 06:47:42;;;;;;;2.80;1.20;;;9.80;99.90;;;;;;5053035;28;20431;-56
2023/01/05 06:50:09;;;;;;;3.13;1.53;;;10.00;99.90;;;;;;5052122;28;20432;-56
2023/01/05 06:52:38;;;;;;;2.67;1.70;;;10.80;99.90;;;;;;5053646;28;20459;-55
2023/01/05 06:55:06;;;;;;;3.60;1.60;;;10.40;99.90;;;;;;5053386;28;20517;-54
2023/01/05 06:57:33;;;;;;;3.13;1.60;;;10.10;99.90;;;;;;5053061;28;20437;-57
2023/01/05 07:00:01;;;;;;;3.80;1.60;;;10.40;99.90;;;;;;5052248;28;20442;-56
2023/01/05 07:02:27;;;;;;;4.17;1.73;;;10.80;99.90;;;;;;5052907;28;20869;-55
2023/01/05 07:04:54;;;;;;;1.83;0.97;;;10.10;99.90;;;;;;5052820;28;20774;-56
2023/01/05 07:07:20;;;;;;;2.93;1.40;;;10.10;99.90;;;;;;5052907;28;20440;-56
2023/01/05 07:09:48;;;;;;;2.80;1.00;;;10.20;99.90;;;;;;5052483;28;20414;-56
2023/01/05 07:12:14;;;;;;;2.10;1.23;;;10.20;99.90;;;;;;5052868;28;20433;-56
2023/01/05 07:14:41;;;;;;;2.90;1.50;;;10.10;99.90;;;;;;5053162;28;20410;-56
2023/01/05 07:17:11;;;;;;;4.50;1.47;;;10.60;99.90;;;;;;5052863;28;20893;-55
2023/01/05 07:19:38;;;;;;;3.53;1.50;;;9.60;99.90;;;;;;5052176;28;20468;-54
2023/01/05 07:22:04;;;;;;;2.10;1.37;;;10.00;99.90;;;;;;5034186;28;20460;-55
2023/01/05 07:24:31;;;;;;;3.40;1.10;;;10.10;99.90;;;;;;5052445;28;20841;-56
2023/01/05 07:26:58;;;;;;;2.43;0.90;;;9.80;99.90;;;;;;5052443;28;20435;-56
2023/01/05 07:29:25;;;;;;;9.00;1.20;;;10.40;99.90;;;;;;5051649;28;20405;-56
2023/01/05 07:31:52;;;;;;;4.23;1.30;;;9.90;99.90;;;;;;5052478;28;20509;-56
2023/01/05 07:34:21;;;;;;;2.70;1.43;;;9.80;99.90;;;;;;5052507;28;20442;-57
2023/01/05 07:36:48;;;;;;;2.70;0.93;;;10.40;99.90;;;;;;5052614;28;20482;-57
2023/01/05 07:39:15;;;;;;;2.93;0.90;;;10.00;99.90;;;;;;5051415;28;20469;-56
2023/01/05 07:41:42;;;;;;;3.03;2.03;;;10.00;99.90;;;;;;5052155;28;20455;-57
2023/01/05 07:44:09;;;;;;;4.57;1.80;;;9.90;99.90;;;;;;5051922;28;20406;-57
2023/01/05 07:46:36;;;;;;;2.17;1.03;;;10.40;99.90;;;;;;5051958;28;20933;-56
2023/01/05 07:49:03;;;;;;;1.80;1.10;;;10.00;99.90;;;;;;5051371;28;20924;-57
2023/01/05 07:51:30;;;;;;;3.63;0.90;;;9.90;99.90;;;;;;5052209;28;20496;-56
2023/01/05 07:53:57;;;;;;;3.63;1.00;;;10.40;99.90;;;;;;5052117;28;20437;-56
2023/01/05 07:56:24;;;;;;;2.40;1.33;;;10.30;99.90;;;;;;5052033;28;20478;-56
2023/01/05 07:58:50;;;;;;;2.27;1.30;;;10.50;99.90;;;;;;5050831;28;20435;-56
2023/01/05 08:01:17;;;;;;;1.63;1.00;;;9.90;99.90;;;;;;5051911;28;20843;-55
2023/01/05 08:03:44;;;;;;;2.60;0.90;;;10.30;99.90;;;;;;5051838;28;20432;-55
2023/01/05 08:06:13;;;;;;;2.13;0.80;;;10.00;99.90;;;;;;5052420;28;20805;-56
2023/01/05 08:08:41;;;;;;;2.93;0.90;;;9.90;99.90;;;;;;5051038;28;20430;-55
2023/01/05 08:11:09;;;;;;;1.83;0.80;;;9.80;99.90;;;;;;5051791;28;20996;-56
2023/01/05 08:16:21;;;;;;;3.10;1.10;;;10.00;99.90;;;;;;5052060;28;20683;-56
2023/01/05 08:18:48;;;;;;;1.87;0.77;;;10.10;99.90;;;;;;5050825;28;20442;-56
2023/01/05 08:21:14;;;;;;;1.97;1.03;;;10.30;99.90;;;;;;5051532;28;20474;-56
2023/01/05 08:23:44;;;;;;;4.80;1.53;;;9.40;99.90;;;;;;5051387;28;20804;-55
2023/01/05 08:26:13;;;;;;;2.30;0.90;;;10.60;99.90;;;;;;5051414;28;20450;-56
2023/01/05 08:28:40;;;;;;;1.53;0.87;;;10.00;99.90;;;;;;5050640;28;20432;-55
2023/01/05 08:31:08;;;;;;;1.53;0.90;;;10.10;99.90;;;;;;5051310;28;20438;-55
2023/01/05 08:33:35;;;;;;;2.33;0.80;;;9.90;99.90;;;;;;5051458;28;20454;-56
2023/01/05 08:36:02;;;;;;;2.60;0.90;;;9.80;99.90;;;;;;5051684;28;20973;-54
2023/01/05 08:38:28;;;;;;;2.60;1.10;;;10.50;99.90;;;;;;5050420;28;20434;-56
2023/01/05 08:40:59;;;;;;;1.83;0.90;;;10.10;99.90;;;;;;5051157;28;20433;-57
2023/01/05 08:43:26;;;;;;;3.53;2.03;;;10.00;99.90;;;;;;5051070;28;20530;-55
2023/01/05 08:45:52;;;;;;;1.60;1.10;;;10.40;99.90;;;;;;5051455;28;20469;-55
2023/01/05 08:48:19;;;;;;;3.93;1.47;;;10.10;99.90;;;;;;5050775;28;20915;-54
2023/01/05 08:50:46;;;;;;;8.90;2.80;;;9.40;99.90;;;;;;5050406;28;20462;-56
2023/01/05 08:53:12;;;;;;;4.67;1.40;;;10.00;99.90;;;;;;5051248;28;20898;-55
2023/01/05 08:55:39;;;;;;;2.70;1.00;;;10.30;99.90;;;;;;5053497;28;20457;-55
2023/01/05 08:58:07;;;;;;;3.50;1.33;;;9.90;99.90;;;;;;5055273;28;20406;-56
2023/01/05 09:00:34;;;;;;;2.90;1.27;;;10.10;99.90;;;;;;5054572;28;20405;-56
2023/01/05 09:03:01;;;;;;;3.63;1.47;;;9.50;99.90;;;;;;5037417;28;20441;-57
2023/01/05 09:05:27;;;;;;;5.10;1.43;;;9.90;99.90;;;;;;5055158;28;20492;-55
2023/01/05 09:07:54;;;;;;;5.77;1.63;;;10.10;99.90;;;;;;5055042;28;20413;-56
2023/01/05 09:10:21;;;;;;;13.60;3.03;;;9.80;99.90;;;;;;5054446;28;20921;-55
2023/01/05 09:12:47;;;;;;;4.33;1.73;;;9.30;99.90;;;;;;5055072;28;21151;-55
2023/01/05 09:15:15;;;;;;;4.70;1.13;;;9.70;99.90;;;;;;5055302;28;20467;-55
2023/01/05 09:17:42;;;;;;;2.00;0.90;;;9.70;99.90;;;;;;5055466;28;20753;-56
2023/01/05 09:20:09;;;;;;;2.07;0.97;;;9.70;99.90;;;;;;5054327;28;20409;-56
2023/01/05 09:22:36;;;;;;;2.73;1.30;;;9.60;99.90;;;;;;5055830;28;20833;-53
2023/01/05 09:25:03;;;;;;;1.70;0.83;;;9.70;99.90;;;;;;5055178;28;20768;-54
2023/01/05 09:27:30;;;;;;;7.17;1.27;;;9.70;99.90;;;;;;5055296;28;20496;-53
2023/01/05 09:29:56;;;;;;;4.27;1.10;;;10.00;99.90;;;;;;5054055;28;20494;-53
2023/01/05 09:32:24;;;;;;;2.33;0.93;;;9.70;99.90;;;;;;5036634;28;20512;-52
2023/01/05 09:34:51;;;;;;;2.20;1.40;;;10.00;99.90;;;;;;5054901;28;20829;-55
2023/01/05 09:37:18;;;;;;;3.37;1.23;;;9.70;99.90;;;;;;5054898;28;20479;-54
2023/01/05 09:39:44;;;;;;;2.93;1.50;;;9.40;99.90;;;;;;5053949;28;20484;-54
2023/01/05 09:42:16;;;;;;;3.77;1.60;;;9.80;99.90;;;;;;5054322;28;20454;-54
2023/01/05 09:44:46;;;;;;;3.83;1.40;;;9.80;99.90;;;;;;5054488;28;20504;-54
2023/01/05 09:47:18;;;;;;;2.37;1.00;;;9.50;99.90;;;;;;5054682;28;20446;-54
2023/01/05 09:49:47;;;;;;;5.83;1.17;;;9.80;99.90;;;;;;5053789;28;20385;-55
2023/01/05 09:52:14;;;;;;;5.30;0.90;;;10.10;99.90;;;;;;5054267;28;20822;-54
2023/01/05 09:54:41;;;;;;;1.67;0.87;;;10.30;99.90;;;;;;5054543;28;20430;-54
2023/01/05 09:57:15;;;;;;;3.50;1.10;;;10.10;99.90;;;;;;5054507;28;20478;-53
2023/01/05 09:59:44;;;;;;;10.60;1.70;;;10.40;99.90;;;;;;5053673;28;20449;-54
2023/01/05 10:02:18;;;;;;;2.77;1.10;;;9.40;99.90;;;;;;5054305;28;20516;-55
2023/01/05 10:04:47;;;;;;;3.70;1.50;;;9.90;99.90;;;;;;5054689;28;20416;-54
2023/01/05 10:07:21;;;;;;;4.20;1.33;;;10.00;99.90;;;;;;5054116;28;20477;-54
2023/01/05 10:09:48;;;;;;;9.93;1.73;;;10.20;99.90;;;;;;5053837;28;20482;-54
2023/01/05 10:15:10;;;;;;;4.87;1.20;;;10.10;99.90;;;;;;5054146;28;20791;-54
2023/01/05 10:17:40;;;;;;;4.43;1.60;;;10.20;99.90;;;;;;5053991;28;20544;-54
2023/01/05 10:20:16;;;;;;;3.07;1.47;;;10.90;99.90;;;;;;5053485;28;20493;-54
2023/01/05 10:22:51;;;;;;;3.40;1.23;;;10.50;99.90;;;;;;5053917;28;20470;-54
2023/01/05 10:25:21;;;;;;;4.30;1.90;;;10.40;99.90;;;;;;5053733;28;20417;-54
2023/01/05 10:27:55;;;;;;;5.43;1.60;;;10.80;99.90;;;;;;5054096;28;20435;-54
2023/01/05 10:30:24;;;;;;;4.30;1.57;;;10.70;99.90;;;;;;5035056;28;20450;-54
2023/01/05 10:33:00;;;;;;;5.73;1.73;;;11.10;99.90;;;;;;5053642;28;20446;-54
2023/01/05 10:35:43;;;;;;;5.67;3.30;;;10.70;99.90;;;;;;5054003;28;20432;-54
2023/01/05 10:38:22;;;;;;;3.70;1.67;;;10.90;99.90;;;;;;5053572;28;20762;-54
2023/01/05 10:41:01;;;;;;;6.63;1.33;;;10.90;99.90;;;;;;5053329;28;20434;-54
2023/01/05 10:43:41;;;;;;;5.40;1.33;;;10.80;99.90;;;;;;5053486;28;20424;-55
2023/01/05 10:46:11;;;;;;;5.33;2.17;;;10.70;99.90;;;;;;5053842;28;20443;-54
2023/01/05 10:48:39;;;;;;;5.10;1.63;;;10.90;99.90;;;;;;5052837;28;20559;-54
2023/01/05 10:51:08;;;;;;;7.60;3.20;;;10.80;99.90;;;;;;5053514;28;20437;-54
2023/01/05 10:53:37;;;;;;;3.40;1.50;;;11.20;99.90;;;;;;5053152;28;20899;-54
2023/01/05 10:56:06;;;;;;;3.90;1.40;;;10.40;99.90;;;;;;5053055;28;20485;-54
2023/01/05 10:58:35;;;;;;;4.93;2.03;;;10.60;99.90;;;;;;5052518;28;20399;-54
2023/01/05 11:01:05;;;;;;;11.47;2.07;;;10.70;99.90;;;;;;5053184;28;20457;-54
2023/01/05 11:03:39;;;;;;;4.00;1.63;;;10.90;99.90;;;;;;5053077;28;20421;-55
2023/01/05 11:06:09;;;;;;;1.80;1.23;;;10.70;99.90;;;;;;5053276;28;20405;-54
2023/01/05 11:08:36;;;;;;;4.33;1.30;;;10.80;99.90;;;;;;5052194;28;20411;-54
2023/01/05 11:11:06;;;;;;;3.70;1.10;;;10.50;99.90;;;;;;5052717;28;20461;-54
2023/01/05 11:13:35;;;;;;;7.27;1.50;;;11.00;99.90;;;;;;5052648;28;20509;-55
2023/01/05 11:16:07;;;;;;;2.80;1.30;;;10.80;99.90;;;;;;5052839;28;20793;-54
2023/01/05 11:18:36;;;;;;;8.27;3.00;;;11.00;99.90;;;;;;5051198;28;20432;-54
2023/01/05 11:21:14;;;;;;;8.10;2.00;;;11.10;99.90;;;;;;5052430;28;20477;-54
2023/01/05 11:23:43;;;;;;;6.13;1.73;;;11.30;99.90;;;;;;5052504;28;20444;-54
2023/01/05 11:26:29;;;;;;;5.90;1.90;;;11.40;99.90;;;;;;5052310;28;21006;-56
2023/01/05 11:29:10;;;;;;;4.27;1.43;;;11.40;99.90;;;;;;5051710;28;20435;-53
2023/01/05 11:31:41;;;;;;;8.13;2.90;;;11.60;99.90;;;;;;5052166;28;20457;-56
2023/01/05 11:34:16;;;;;;;3.43;1.50;;;11.00;99.90;;;;;;5052347;28;20439;-54
2023/01/05 11:36:52;;;;;;;4.57;1.80;;;10.80;99.90;;;;;;5052044;28;20452;-54
2023/01/05 11:39:25;;;;;;;4.00;1.27;;;11.30;99.90;;;;;;5051528;28;20408;-54
2023/01/05 11:41:53;;;;;;;4.93;1.53;;;11.00;99.90;;;;;;5052252;28;20564;-56
2023/01/05 11:44:22;;;;;;;5.20;1.87;;;11.30;99.90;;;;;;5052340;28;20483;-53
2023/01/05 11:46:49;;;;;;;6.77;1.90;;;11.50;99.90;;;;;;5052343;28;20472;-53
2023/01/05 11:49:18;;;;;;;6.07;1.70;;;11.30;99.90;;;;;;5051680;28;20829;-54
2023/01/05 11:51:46;;;;;;;5.80;1.43;;;11.60;99.90;;;;;;5052137;28;20518;-54
2023/01/05 11:54:33;;;;;;;4.60;2.00;;;11.30;99.90;;;;;;5052024;28;20410;-54
2023/01/05 11:57:22;;;;;;;6.77;2.60;;;10.90;99.90;;;;;;5051958;28;20691;-54
2023/01/05 11:59:50;;;;;;;4.73;1.30;;;11.40;99.90;;;;;;5047453;28;20433;-54
2023/01/05 12:02:54;;;;;;;9.43;1.73;;;11.00;99.90;;;;;;5051538;28;20464;-54
2023/01/05 12:05:26;;;;;;;11.13;4.30;;;11.00;99.90;;;;;;5042243;28;20486;-54
2023/01/05 12:07:59;;;;;;;6.57;1.63;;;11.40;99.90;;;;;;5052169;28;20465;-55
2023/01/05 12:10:43;;;;;;;3.97;1.23;;;11.20;99.90;;;;;;5051427;28;20571;-55
2023/01/05 12:13:29;;;;;;;5.27;1.67;;;11.00;99.90;;;;;;5051815;28;20477;-55
2023/01/05 12:16:08;;;;;;;6.73;2.30;;;11.40;99.90;;;;;;5052065;28;20435;-54
2023/01/05 12:19:08;;;;;;;4.13;1.27;;;11.10;99.90;;;;;;5033161;28;20505;-55
2023/01/05 12:21:38;;;;;;;4.80;1.90;;;11.30;99.90;;;;;;5051721;28;20483;-54
2023/01/05 12:27:12;;;;;;;6.57;1.80;;;11.50;99.90;;;;;;5065467;28;20578;-54
2023/01/05 12:29:55;;;;;;;5.00;1.60;;;11.30;99.90;;;;;;5064566;28;20417;-54
2023/01/05 12:32:32;;;;;;;6.50;1.33;;;11.20;99.90;;;;;;5065204;28;20483;-54
2023/01/05 12:35:16;;;;;;;4.00;1.60;;;10.80;99.90;;;;;;5065289;28;20791;-55
2023/01/05 12:38:04;;;;;;;5.73;1.83;;;11.40;99.90;;;;;;5064156;27;20456;-54
2023/01/05 12:40:48;;;;;;;4.67;1.70;;;11.10;99.90;;;;;;5064558;28;20447;-55
2023/01/05 12:43:23;;;;;;;4.87;1.63;;;11.30;99.90;;;;;;5065689;27;20421;-54
2023/01/05 12:46:03;;;;;;;5.30;1.50;;;10.70;99.90;;;;;;5065233;28;20449;-53
2023/01/05 12:48:34;;;;;;;14.93;2.20;;;11.40;99.90;;;;;;5062824;28;20416;-55
2023/01/05 12:51:10;;;;;;;6.77;2.17;;;11.10;99.90;;;;;;5064954;28;20457;-54
2023/01/05 12:53:44;;;;;;;6.63;1.60;;;11.20;99.90;;;;;;5065155;27;20402;-54
2023/01/05 12:56:19;;;;;;;6.90;1.30;;;11.60;99.90;;;;;;5065124;27;20412;-55
2023/01/05 12:58:54;;;;;;;8.00;1.90;;;11.30;99.90;;;;;;5064386;27;20769;-54
2023/01/05 13:01:27;;;;;;;6.70;2.13;;;10.90;99.90;;;;;;5065120;28;20521;-55
2023/01/05 13:03:58;;;;;;;6.37;1.80;;;10.60;99.90;;;;;;5065584;27;20473;-54
2023/01/05 13:06:30;;;;;;;4.77;1.40;;;11.70;99.90;;;;;;5064777;27;20456;-55
2023/01/05 13:09:01;;;;;;;5.77;1.90;;;11.00;99.90;;;;;;5064211;27;20409;-54
2023/01/05 13:11:33;;;;;;;4.50;1.20;;;11.20;99.90;;;;;;5064943;28;20954;-53
2023/01/05 13:14:05;;;;;;;5.00;1.63;;;11.50;99.90;;;;;;5065230;27;20431;-55
2023/01/05 13:16:38;;;;;;;9.83;1.50;;;11.10;99.90;;;;;;5064733;28;20412;-53
2023/01/05 13:19:14;;;;;;;6.33;1.60;;;10.60;99.90;;;;;;5064222;27;20414;-54
2023/01/05 13:21:44;;;;;;;5.10;1.37;;;10.90;99.90;;;;;;5064490;27;20439;-53
2023/01/05 13:24:19;;;;;;;7.37;1.63;;;10.60;99.90;;;;;;5064859;27;20414;-55
2023/01/05 13:26:46;;;;;;;6.80;1.40;;;10.90;99.90;;;;;;5064155;27;20483;-53
2023/01/05 13:29:21;;;;;;;3.28;1.30;;;11.20;99.90;;;;;;5063810;27;20328;-54
2023/01/05 13:32:06;;;;;;;3.50;1.37;;;11.30;99.90;;;;;;5064387;28;20222;-53
2023/01/05 13:34:47;;;;;;;4.97;1.60;;;10.90;99.90;;;;;;5063454;28;20444;-53
2023/01/05 13:37:46;;;;;;;1.97;1.13;;;11.50;99.90;;;;;;5057206;27;20289;-55
2023/01/05 13:40:43;;;;;;;10.00;1.37;;;11.10;99.90;;;;;;5055270;28;20434;-54
2023/01/05 13:43:32;;;;;;;3.33;1.13;;;11.10;99.90;;;;;;5057788;28;20422;-54